Pollock, ID

2:59 PM MST on February 27, 2017 (GMT -0700)
Idaho Cnty AP, Grangeville, I | | Change Station
Active Advisory: Winter Weather Advisory

Elev 3314 ft 45.94 °N, 116.12 °W | Updated 4 minutes ago

Overcast
Overcast
34 °F
Feels Like 25 °F
N
13
Wind Variable Wind from WSW

Today
High -- | Low -- °F
--% Chance of Precip.
Yesterday
High -- | Low -- °F
Precip. -- in
Pressure 29.62 in
Visibility 10.0 miles
Clouds Scattered Clouds 1100 ft
Scattered Clouds 3100 ft
Mostly Cloudy 6500 ft
Windchill 25 °F
Dew Point 21 °F
Humidity 60%
Rainfall 0.05 in
Snow Depth Not available.
7:26 AM 6:30 PM
New Moon, 2% visible
METAR KGIC 272155Z AUTO 25011KT 10SM SCT011 SCT031 BKN065 01/M06 A2962 RMK AO1
Pressure 29.62 in
Visibility 10.0 miles
Clouds Scattered Clouds 1100 ft
Scattered Clouds 3100 ft
Mostly Cloudy 6500 ft
Windchill 25 °F
Dew Point 21 °F
Humidity 60%
Rainfall 0.05 in
Snow Depth Not available.
7:26 AM 6:30 PM
New Moon, 2% visible
METAR KGIC 272155Z AUTO 25011KT 10SM SCT011 SCT031 BKN065 01/M06 A2962 RMK AO1

Get Your Daily Forecast Email!

Thanks for signing up!

Be on the lookout for a verification email in your inbox.

You'll start receiving the daily forecast at 8 AM.

×

10-Day Weather Forecast

Almanac

Astronomy

Feb. 27, 2017 Rise Set
Actual Time
Civil Twilight
Nautical Twilight
Astronomical Twilight
Moon
Length of Visible Light
Length of Day
Tomorrow will be .
, % of the Moon is Illuminated

Today's Extremes

State Highs State Lows

Community

WunderPhotos

Upload Photos

1,962,540 photos uploaded!

WunderBlog® & News

Nearby

Air Quality

  Air Quality AQ Index Pollutant
Not available.

Snow Depth

Station Depth Elevation

Earthquake Activity

City Distance Mag. Time & Date
Minimum magnitude displayed is 2.5.

Coastal Water Temperatures

Place Temperature

Stations

Nearby Weather Stations

Station Location Temp. Windchill Dew Point Humidity Wind Precip. Elev Updated Type
                   

Watches & Warnings

Winter Weather Advisory
Issued: 1:39 PM PST Feb. 27, 2017 – National Weather Service

... Winter Weather Advisory in effect from 5 PM this afternoon to
11 am PST Tuesday...

* impacts/timing: periodic afternoon snow showers will transition
into steady snow overnight leading to potential travel issues
throughout the area. The heaviest snowfall is anticipated to
develop after midnight and will last through Tuesday morning.

* Snow accumulations: generally 2 to 4 inches with up to 6 inches
possible on the benches and higher terrain throughout the area,
including White Bird pass and Greer grade.

* Locations impacted include: Camas Prairie, Grangeville and
vicinity, Greer grade, Highway 95 Slate Creek to Riggins, and
White Bird grade